Flight Track Log - Related Links

Times and Time Zones

All times are in EDT time to prevent confusion due to time zone crossing. See the SKW4664 flight status page for this flight to view local times or setup timezone preferences in your user account.

Time Position Orientation Groundspeed Altitude Reporting Facility
EDT Latitude Longitude Course Direction KTS MPH feet Rate Location/Type
Sun 12:06:02 PM 43.5386 -96.6606 116° Southeast 226 260 4,100  Level Minneapolis Center
Sun 12:07:04 PM 43.5850 -96.5822 51° Northeast 253 291 6,000 2,323 Climbing Minneapolis Center
Sun 12:08:00 PM 43.8523 -96.2348 53° Northeast  Level FlightAware Approximate
Sun 12:08:06 PM 43.6375 -96.4969 50° Northeast 276 318 8,900  Level Minneapolis Center
Sun 12:09:00 PM 43.9221 -96.1068 52° Northeast  Level FlightAware Approximate
Sun 12:09:07 PM 43.6903 -96.4108 50° Northeast 287 330 11,100  Level Minneapolis Center
Sun 12:10:00 PM 43.9929 -95.9798 52° Northeast  Level FlightAware Approximate
Sun 12:10:09 PM 43.7617 -96.2964 49° Northeast 317 365 13,500  Level Minneapolis Center
Sun 12:11:10 PM 43.8117 -96.2161 49° Northeast 340 391 15,200 1,854 Climbing Minneapolis Center
Sun 12:12:12 PM 43.8875 -96.0933 49° Northeast 352 405 17,300 1,887 Climbing Minneapolis Center
Sun 12:13:14 PM 43.9525 -95.9856 50° Northeast 365 420 19,100 1,610 Climbing Minneapolis Center
Sun 12:14:15 PM 44.0192 -95.8769 49° Northeast 372 428 20,600 1,366 Climbing Minneapolis Center
Sun 12:15:17 PM 44.0783 -95.7567 56° Northeast 380 437 21,900 1,161 Climbing Minneapolis Center
Sun 12:16:19 PM 44.1414 -95.5967 61° Northeast 395 455 23,000 537 Climbing Minneapolis Center
Sun 12:17:20 PM 44.1975 -95.4528 61° Northeast 420 483 23,000  Level Minneapolis Center
Sun 12:18:22 PM 44.2553 -95.3056 61° Northeast 433 498 23,000  Level Minneapolis Center
Sun 12:19:24 PM 44.3136 -95.1572 61° Northeast 438 504 23,000  Level Minneapolis Center
Sun 12:20:25 PM 44.3700 -95.0075 62° Northeast 438 504 23,000  Level Minneapolis Center
Sun 12:21:27 PM 44.4297 -94.8594 61° Northeast 438 504 23,000 -774 Level Minneapolis Center
Sun 12:22:29 PM 44.4989 -94.6775 62° Northeast 442 509 21,400 -2,293 Descending Minneapolis Center
Sun 12:23:30 PM 44.5519 -94.5308 63° Northeast 436 502 18,300 -2,829 Descending Minneapolis Center
Sun 12:24:32 PM 44.5961 -94.4192 61° Northeast 415 478 15,600 -2,806 Descending Minneapolis Center
Sun 12:25:34 PM 44.6553 -94.2611 62° Northeast 382 440 12,500 -2,293 Descending Minneapolis Center
Sun 12:26:35 PM 44.6997 -94.1328 64° Northeast 369 425 10,900 -1,024 Descending Minneapolis Center
Sun 12:27:37 PM 44.7267 -94.0069 73° East 334 384 10,400 -1,161 Descending Minneapolis Center
Sun 12:28:39 PM 44.7625 -93.9011 64° Northeast 303 349 8,500 -1,645 Descending Minneapolis Center
Sun 12:29:41 PM 44.8250 -93.7914 51° Northeast 299 344 7,000 -732 Descending Minneapolis Center
Sun 12:30:42 PM 44.8767 -93.6994 52° Northeast 300 345 7,000 -341 Level Minneapolis Center
Sun 12:31:44 PM 44.9247 -93.6131 52° Northeast 280 322 6,300 -919 Descending Minneapolis Center
Sun 12:32:46 PM 44.9442 -93.5253 73° East 246 283 5,100 -1,403 Descending Minneapolis Center
Sun 12:33:48 PM 44.9386 -93.4297 95° East 244 281 3,400 -1,073 Descending Minneapolis Center
Sun 12:34:49 PM 44.9389 -93.3492 90° East 194 223 2,900 -492 Descending Minneapolis Center

Login

Don't have an account? Register now (free) for customized features, flight alerts, and more!